createdAt,value
2018-01-08T00:00:03.684Z,26.87
2018-01-08T00:02:31.880Z,26.95
2018-01-08T00:05:00.076Z,27.98
2018-01-08T00:07:28.164Z,27.65
2018-01-08T00:09:56.257Z,26.75
2018-01-08T00:12:24.360Z,24.50
2018-01-08T00:14:52.661Z,26.80
2018-01-08T00:17:20.840Z,26.70
2018-01-08T00:19:49.040Z,24.52
2018-01-08T00:22:17.120Z,27.25
2018-01-08T00:24:45.219Z,25.70
2018-01-08T00:27:13.324Z,25.10
2018-01-08T00:29:41.719Z,27.98
2018-01-08T00:32:10.002Z,23.87
2018-01-08T00:34:38.205Z,22.40
2018-01-08T00:37:06.290Z,31.30
2018-01-08T00:39:34.498Z,24.65
2018-01-08T00:42:02.681Z,25.02
2018-01-08T00:44:30.877Z,31.55
2018-01-08T00:46:59.084Z,28.67
2018-01-08T00:49:27.275Z,31.52
2018-01-08T00:51:55.461Z,30.52
2018-01-08T00:54:23.654Z,27.90
2018-01-08T00:56:51.857Z,26.62
2018-01-08T00:59:20.074Z,30.50
2018-01-08T01:01:48.338Z,23.50
2018-01-08T01:04:16.734Z,28.25
2018-01-08T01:06:45.040Z,31.08
2018-01-08T01:09:13.328Z,27.30
2018-01-08T01:11:41.635Z,25.52
2018-01-08T01:14:09.915Z,22.23
2018-01-08T01:16:38.075Z,25.50
2018-01-08T01:19:06.086Z,23.98
2018-01-08T01:21:34.300Z,19.17
2018-01-08T01:24:02.396Z,25.12
2018-01-08T01:26:30.480Z,24.65
2018-01-08T01:28:58.594Z,23.52
2018-01-08T01:31:26.875Z,28.00
2018-01-08T01:33:54.962Z,21.75
2018-01-08T01:36:23.065Z,21.12
2018-01-08T01:38:51.157Z,22.50
2018-01-08T01:41:19.458Z,21.05
2018-01-08T01:43:47.656Z,22.55
2018-01-08T01:46:15.935Z,28.00
2018-01-08T01:48:44.136Z,20.98
2018-01-08T01:51:12.436Z,26.60
2018-01-08T01:53:40.736Z,22.30
2018-01-08T01:56:09.021Z,34.53
2018-01-08T01:58:37.115Z,25.35
2018-01-08T02:01:05.174Z,23.10
2018-01-08T02:03:33.200Z,24.50
2018-01-08T02:06:01.400Z,26.70
2018-01-08T02:08:29.595Z,27.27
2018-01-08T02:10:57.779Z,22.52
2018-01-08T02:13:26.296Z,31.65
2018-01-08T02:15:54.474Z,27.62
2018-01-08T02:18:22.663Z,26.42
2018-01-08T02:20:50.981Z,29.17
2018-01-08T02:23:19.264Z,30.58
2018-01-08T02:25:47.461Z,29.42
2018-01-08T02:28:15.754Z,39.08
2018-01-08T02:30:44.165Z,32.70
2018-01-08T02:33:12.560Z,29.40
2018-01-08T02:35:40.760Z,28.15
2018-01-08T02:38:08.940Z,26.25
2018-01-08T02:40:37.900Z,30.50
2018-01-08T02:43:05.907Z,24.95
2018-01-08T02:45:34.136Z,23.02
2018-01-08T02:48:02.342Z,22.70
2018-01-08T02:50:30.421Z,24.58
2018-01-08T02:52:58.618Z,24.67
2018-01-08T02:55:26.719Z,22.25
2018-01-08T02:57:54.903Z,26.45
2018-01-08T03:00:23.201Z,22.73
2018-01-08T03:02:51.600Z,29.52
2018-01-08T03:05:19.795Z,24.33
2018-01-08T03:07:48.101Z,24.27
2018-01-08T03:10:16.396Z,24.80
2018-01-08T03:12:44.783Z,26.92
2018-01-08T03:15:14.014Z,29.73
2018-01-08T03:17:42.315Z,31.62
2018-01-08T03:20:10.405Z,32.42
2018-01-08T03:22:38.480Z,38.85
2018-01-08T03:25:06.577Z,35.30
2018-01-08T03:27:34.774Z,36.30
2018-01-08T03:30:02.977Z,31.98
2018-01-08T03:32:31.158Z,37.08
2018-01-08T03:34:59.259Z,32.38
2018-01-08T03:37:27.454Z,37.85
2018-01-08T03:39:55.860Z,35.72
2018-01-08T03:42:24.154Z,33.47
2018-01-08T03:44:52.341Z,36.38
2018-01-08T03:47:20.634Z,33.08
2018-01-08T03:49:48.934Z,28.50
2018-01-08T03:52:17.224Z,29.77
2018-01-08T03:54:45.522Z,33.30
2018-01-08T03:57:13.815Z,29.83
2018-01-08T03:59:42.024Z,32.88
2018-01-08T04:02:10.214Z,29.42
2018-01-08T04:04:38.218Z,33.25
2018-01-08T04:07:07.021Z,25.30
2018-01-08T04:09:35.106Z,33.63
2018-01-08T04:12:03.303Z,25.98
2018-01-08T04:14:31.400Z,28.98
2018-01-08T04:16:59.583Z,30.85
2018-01-08T04:19:27.681Z,27.10
2018-01-08T04:21:55.963Z,31.10
2018-01-08T04:24:24.261Z,30.25
2018-01-08T04:26:52.565Z,30.05
2018-01-08T04:29:20.856Z,31.05
2018-01-08T04:31:49.162Z,37.70
2018-01-08T04:34:17.457Z,34.42
2018-01-08T04:36:45.757Z,33.72
2018-01-08T04:39:13.843Z,39.75
2018-01-08T04:41:42.037Z,47.78
2018-01-08T04:44:10.241Z,45.47
2018-01-08T04:46:38.337Z,38.03
2018-01-08T04:49:06.518Z,44.15
2018-01-08T04:51:34.720Z,42.10
2018-01-08T04:54:02.918Z,41.20
2018-01-08T04:56:30.995Z,36.60
2018-01-08T04:58:59.916Z,36.47
2018-01-08T05:01:28.001Z,33.33
2018-01-08T05:03:56.297Z,37.30
2018-01-08T05:06:24.597Z,37.58
2018-01-08T05:08:52.884Z,31.67
2018-01-08T05:11:21.195Z,35.13
2018-01-08T05:13:49.498Z,33.80
2018-01-08T05:16:17.878Z,28.05
2018-01-08T05:18:46.079Z,30.70
2018-01-08T05:21:14.277Z,35.17
2018-01-08T05:23:42.577Z,33.03
2018-01-08T05:26:10.666Z,34.35
2018-01-08T05:28:38.905Z,38.35
2018-01-08T05:31:07.152Z,37.92
2018-01-08T05:33:35.344Z,33.55
2018-01-08T05:36:03.550Z,36.22
2018-01-08T05:38:31.734Z,41.70
2018-01-08T05:41:00.049Z,43.83
2018-01-08T05:43:28.321Z,39.55
2018-01-08T05:45:56.632Z,38.67
2018-01-08T05:48:24.918Z,40.15
2018-01-08T05:50:53.210Z,43.63
2018-01-08T05:53:21.506Z,42.08
2018-01-08T05:55:49.816Z,37.30
2018-01-08T05:58:17.996Z,35.00
2018-01-08T06:00:46.101Z,32.42
2018-01-08T06:03:14.302Z,36.22
2018-01-08T06:05:42.481Z,30.00
2018-01-08T06:08:10.684Z,31.62
2018-01-08T06:10:38.706Z,29.37
2018-01-08T06:13:06.980Z,35.72
2018-01-08T06:15:35.360Z,27.95
2018-01-08T06:18:03.562Z,37.05
2018-01-08T06:20:31.659Z,31.20
2018-01-08T06:22:59.944Z,36.50
2018-01-08T06:25:28.246Z,32.95
2018-01-08T06:27:56.545Z,34.22
2018-01-08T06:30:24.835Z,33.50
2018-01-08T06:32:53.174Z,31.33
2018-01-08T06:35:21.423Z,30.27
2018-01-08T06:37:49.636Z,31.77
2018-01-08T06:40:17.826Z,33.92
2018-01-08T06:42:46.025Z,30.20
2018-01-08T06:45:14.112Z,34.40
2018-01-08T06:47:42.302Z,32.25
2018-01-08T06:50:10.399Z,42.42
2018-01-08T06:52:38.442Z,33.95
2018-01-08T06:55:06.579Z,34.80
2018-01-08T06:57:34.772Z,45.72
2018-01-08T07:00:03.076Z,46.58
2018-01-08T07:02:31.356Z,46.45
2018-01-08T07:04:59.565Z,47.83
2018-01-08T07:07:27.863Z,52.65
2018-01-08T07:09:56.076Z,51.67
2018-01-08T07:12:24.357Z,48.22
2018-01-08T07:14:52.549Z,46.88
2018-01-08T07:17:20.637Z,45.30
2018-01-08T07:19:48.834Z,73.87
2018-01-08T07:22:17.036Z,56.95
2018-01-08T07:24:45.214Z,61.47
2018-01-08T07:27:13.422Z,58.08
2018-01-08T07:29:41.619Z,58.53
2018-01-08T07:32:10.219Z,47.58
2018-01-08T07:34:38.261Z,50.63
2018-01-08T07:37:06.451Z,45.33
2018-01-08T07:39:34.796Z,41.55
2018-01-08T07:42:03.091Z,38.88
2018-01-08T07:44:31.281Z,42.05
2018-01-08T07:46:59.381Z,38.83
2018-01-08T07:49:27.561Z,38.45
2018-01-08T07:51:55.771Z,37.67
2018-01-08T07:54:23.959Z,41.08
2018-01-08T07:56:52.265Z,33.33
2018-01-08T07:59:20.458Z,33.90
2018-01-08T08:01:48.639Z,47.20
2018-01-08T08:04:16.844Z,42.40
2018-01-08T08:06:45.136Z,41.22
2018-01-08T08:09:13.328Z,42.42
2018-01-08T08:11:41.436Z,40.35
2018-01-08T08:14:09.926Z,38.97
2018-01-08T08:16:37.948Z,41.80
2018-01-08T08:19:06.201Z,44.83
2018-01-08T08:21:34.302Z,48.45
2018-01-08T08:24:02.603Z,54.38
2018-01-08T08:26:30.901Z,48.17
2018-01-08T08:28:59.101Z,48.25
2018-01-08T08:31:27.383Z,42.88
2018-01-08T08:33:55.688Z,43.72
2018-01-08T08:36:23.777Z,39.33
2018-01-08T08:38:51.980Z,44.25
2018-01-08T08:41:20.164Z,43.25
2018-01-08T08:43:48.365Z,42.33
2018-01-08T08:46:16.445Z,45.55
2018-01-08T08:48:44.646Z,38.03
2018-01-08T08:51:12.740Z,44.53
2018-01-08T08:53:40.926Z,44.88
2018-01-08T08:56:09.019Z,37.97
2018-01-08T08:58:37.320Z,38.50
2018-01-08T09:01:05.343Z,48.83
2018-01-08T09:03:33.503Z,40.38
2018-01-08T09:06:01.695Z,49.70
2018-01-08T09:08:29.996Z,47.45
2018-01-08T09:10:58.156Z,41.25
2018-01-08T09:13:26.400Z,32.75
2018-01-08T09:15:54.690Z,50.15
2018-01-08T09:18:22.868Z,38.78
2018-01-08T09:20:50.970Z,39.28
2018-01-08T09:23:20.386Z,41.20
2018-01-08T09:25:48.484Z,33.42
2018-01-08T09:28:16.684Z,47.05
2018-01-08T09:30:44.877Z,40.25
2018-01-08T09:33:12.964Z,40.80
2018-01-08T09:35:41.147Z,38.65
2018-01-08T09:38:09.345Z,45.08
2018-01-08T09:40:37.643Z,43.40
2018-01-08T09:43:05.635Z,36.95
2018-01-08T09:45:33.826Z,35.92
2018-01-08T09:48:01.926Z,34.55
2018-01-08T09:50:30.127Z,38.63
2018-01-08T09:52:58.427Z,25.88
2018-01-08T09:55:26.528Z,25.05
2018-01-08T09:57:54.815Z,18.83
2018-01-08T10:00:23.092Z,19.33
2018-01-08T10:02:51.190Z,21.10
2018-01-08T10:05:19.395Z,16.70
2018-01-08T10:07:47.583Z,17.65
2018-01-08T10:10:15.771Z,25.90
2018-01-08T10:12:43.867Z,14.57
2018-01-08T10:15:12.057Z,13.52
2018-01-08T10:17:40.055Z,15.40
2018-01-08T10:20:08.235Z,20.83
2018-01-08T10:22:36.334Z,17.00
2018-01-08T10:25:04.535Z,16.77
2018-01-08T10:27:32.594Z,16.95
2018-01-08T10:30:00.814Z,11.65
2018-01-08T10:32:28.934Z,13.20
2018-01-08T10:34:57.214Z,14.15
2018-01-08T10:37:25.514Z,16.75
2018-01-08T10:39:53.695Z,16.20
2018-01-08T10:42:21.796Z,17.67
2018-01-08T10:44:49.982Z,16.27
2018-01-08T10:47:18.001Z,18.50
2018-01-08T10:49:46.388Z,16.20
2018-01-08T10:52:14.579Z,17.48
2018-01-08T10:54:42.861Z,18.80
2018-01-08T10:57:11.173Z,20.15
2018-01-08T10:59:39.464Z,38.45
2018-01-08T11:02:07.863Z,44.95
2018-01-08T11:04:36.156Z,56.92
2018-01-08T11:07:04.442Z,51.67
2018-01-08T11:09:32.540Z,47.03
2018-01-08T11:12:00.626Z,42.78
2018-01-08T11:14:28.820Z,52.17
2018-01-08T11:16:56.848Z,45.95
2018-01-08T11:19:25.121Z,50.25
2018-01-08T11:21:53.302Z,37.08
2018-01-08T11:24:21.510Z,30.50
2018-01-08T11:26:49.706Z,27.30
2018-01-08T11:29:18.007Z,31.98
2018-01-08T11:31:46.297Z,23.55
2018-01-08T11:34:14.685Z,26.95
2018-01-08T11:36:42.985Z,23.30
2018-01-08T11:39:11.290Z,24.37
2018-01-08T11:41:39.678Z,27.92
2018-01-08T11:44:08.082Z,23.42
2018-01-08T11:46:36.492Z,29.73
2018-01-08T11:49:04.687Z,22.98
2018-01-08T11:51:32.783Z,25.92
2018-01-08T11:54:00.956Z,26.60
2018-01-08T11:56:29.164Z,29.63
2018-01-08T11:58:57.244Z,39.80
2018-01-08T12:01:25.444Z,33.05
2018-01-08T12:03:53.634Z,48.22
2018-01-08T12:06:21.833Z,41.45
2018-01-08T12:08:49.919Z,49.47
2018-01-08T12:11:18.126Z,47.78
2018-01-08T12:13:46.517Z,46.28
2018-01-08T12:16:14.823Z,45.83
2018-01-08T12:18:43.106Z,47.60
2018-01-08T12:21:11.407Z,49.03
2018-01-08T12:23:39.914Z,50.67
2018-01-08T12:26:08.003Z,41.55
2018-01-08T12:28:36.099Z,47.90
2018-01-08T12:31:04.175Z,46.13
2018-01-08T12:33:32.383Z,57.72
2018-01-08T12:36:00.567Z,46.00
2018-01-08T12:38:28.877Z,46.65
2018-01-08T12:40:57.160Z,51.50
2018-01-08T12:43:25.361Z,51.85
2018-01-08T12:45:53.557Z,46.40
2018-01-08T12:48:21.746Z,40.90
2018-01-08T12:50:49.953Z,38.70
2018-01-08T12:53:18.236Z,43.85
2018-01-08T12:55:46.439Z,42.40
2018-01-08T12:58:14.536Z,39.13
2018-01-08T13:00:42.716Z,36.50
2018-01-08T13:03:11.117Z,39.85
2018-01-08T13:05:39.217Z,35.55
2018-01-08T13:08:07.416Z,30.88
2018-01-08T13:10:35.600Z,35.45
2018-01-08T13:13:03.697Z,35.03
2018-01-08T13:15:31.816Z,33.58
2018-01-08T13:17:59.767Z,29.70
2018-01-08T13:20:27.875Z,36.28
2018-01-08T13:22:56.180Z,32.08
2018-01-08T13:25:24.370Z,29.92
2018-01-08T13:27:52.441Z,27.70
2018-01-08T13:30:20.550Z,33.60
2018-01-08T13:32:48.629Z,28.90
2018-01-08T13:35:16.829Z,24.17
2018-01-08T13:37:45.028Z,22.15
2018-01-08T13:40:13.130Z,27.90
2018-01-08T13:42:41.416Z,29.12
2018-01-08T13:45:09.720Z,29.65
2018-01-08T13:47:38.009Z,32.20
2018-01-08T13:50:06.094Z,30.15
2018-01-08T13:52:34.249Z,32.17
2018-01-08T13:55:03.307Z,28.27
2018-01-08T13:57:31.503Z,22.90
2018-01-08T13:59:59.477Z,28.38
2018-01-08T14:02:27.685Z,27.15
2018-01-08T14:04:55.771Z,34.15
2018-01-08T14:07:23.866Z,31.05
2018-01-08T14:09:51.969Z,27.75
2018-01-08T14:12:20.259Z,27.90
2018-01-08T14:14:48.355Z,32.67
2018-01-08T14:17:16.548Z,29.20
2018-01-08T14:19:45.041Z,39.22
2018-01-08T14:22:13.437Z,28.33
2018-01-08T14:24:41.637Z,34.20
2018-01-08T14:27:09.923Z,35.63
2018-01-08T14:29:38.064Z,33.22
2018-01-08T14:32:06.116Z,40.53
2018-01-08T14:34:34.615Z,40.70
2018-01-08T14:37:02.717Z,48.70
2018-01-08T14:39:30.908Z,39.33
2018-01-08T14:41:59.017Z,45.97
2018-01-08T14:44:27.197Z,60.95
2018-01-08T14:46:55.394Z,36.17
2018-01-08T14:49:23.482Z,44.50
2018-01-08T14:51:51.772Z,35.92
2018-01-08T14:54:20.076Z,32.13
2018-01-08T14:56:48.158Z,36.10
2018-01-08T14:59:16.374Z,46.50
2018-01-08T15:01:44.565Z,38.85
2018-01-08T15:04:12.745Z,46.05
2018-01-08T15:06:40.842Z,42.58
2018-01-08T15:09:09.039Z,38.10
2018-01-08T15:11:37.130Z,44.15
2018-01-08T15:14:05.208Z,29.98
2018-01-08T15:16:33.333Z,30.80
2018-01-08T15:19:01.488Z,28.20
2018-01-08T15:21:29.609Z,28.70
2018-01-08T15:23:57.788Z,26.12
2018-01-08T15:26:25.846Z,33.53
2018-01-08T15:28:53.994Z,26.98
2018-01-08T15:31:22.166Z,38.95
2018-01-08T15:33:50.267Z,28.40
2018-01-08T15:36:18.454Z,22.55
2018-01-08T15:38:46.544Z,35.67
2018-01-08T15:41:15.038Z,26.30
2018-01-08T15:43:43.250Z,20.77
2018-01-08T15:46:11.438Z,30.23
2018-01-08T15:48:39.527Z,40.05
2018-01-08T15:51:07.729Z,24.00
2018-01-08T15:53:35.822Z,39.78
2018-01-08T15:56:03.898Z,36.33
2018-01-08T15:58:32.109Z,18.77
2018-01-08T16:01:00.298Z,22.13
2018-01-08T16:03:28.497Z,23.77
2018-01-08T16:05:56.789Z,23.67
2018-01-08T16:08:24.981Z,26.15
2018-01-08T16:10:53.164Z,47.58
2018-01-08T16:13:21.465Z,34.08
2018-01-08T16:15:49.678Z,39.80
2018-01-08T16:18:17.966Z,23.27
2018-01-08T16:20:46.261Z,24.50
2018-01-08T16:23:14.460Z,22.20
2018-01-08T16:25:42.540Z,24.60
2018-01-08T16:28:10.744Z,22.87
2018-01-08T16:30:38.943Z,21.23
2018-01-08T16:33:07.124Z,22.00
2018-01-08T16:35:35.224Z,24.90
2018-01-08T16:38:03.424Z,24.58
2018-01-08T16:40:31.623Z,24.40
2018-01-08T16:42:59.903Z,28.87
2018-01-08T16:45:28.004Z,27.95
2018-01-08T16:47:56.205Z,19.27
2018-01-08T16:50:24.504Z,21.10
2018-01-08T16:52:52.618Z,15.10
2018-01-08T16:55:20.637Z,24.00
2018-01-08T16:57:48.878Z,19.20
2018-01-08T17:00:16.968Z,24.63
2018-01-08T17:02:45.158Z,34.35
2018-01-08T17:05:13.258Z,18.12
2018-01-08T17:07:41.438Z,21.17
2018-01-08T17:10:09.642Z,19.42
2018-01-08T17:12:37.937Z,19.65
2018-01-08T17:15:06.030Z,18.87
2018-01-08T17:17:34.215Z,20.70
2018-01-08T17:20:02.420Z,14.45
2018-01-08T17:22:30.718Z,17.92
2018-01-08T17:24:59.319Z,30.88
2018-01-08T17:27:27.504Z,30.90
2018-01-08T17:29:55.709Z,19.92
2018-01-08T17:32:24.006Z,29.70
2018-01-08T17:34:52.085Z,21.65
2018-01-08T17:37:20.134Z,22.50
2018-01-08T17:39:48.178Z,24.95
2018-01-08T17:42:17.599Z,20.08
2018-01-08T17:44:45.696Z,16.33
2018-01-08T17:47:13.981Z,19.25
2018-01-08T17:49:42.072Z,29.48
2018-01-08T17:52:10.278Z,42.15
2018-01-08T17:54:38.674Z,35.08
2018-01-08T17:57:06.867Z,35.45
2018-01-08T17:59:35.159Z,44.67
2018-01-08T18:02:03.349Z,23.40
2018-01-08T18:04:31.453Z,37.72
2018-01-08T18:06:59.854Z,27.48
2018-01-08T18:09:27.935Z,27.52
2018-01-08T18:11:56.048Z,21.35
2018-01-08T18:14:24.638Z,19.55
2018-01-08T18:16:52.757Z,23.80
2018-01-08T18:19:20.787Z,36.85
2018-01-08T18:21:48.857Z,22.77
2018-01-08T18:24:18.031Z,26.45
2018-01-08T18:26:46.211Z,27.65
2018-01-08T18:29:14.410Z,22.23
2018-01-08T18:31:42.510Z,33.30
2018-01-08T18:34:10.816Z,26.73
2018-01-08T18:36:39.105Z,23.87
2018-01-08T18:39:07.285Z,32.78
2018-01-08T18:41:35.485Z,36.22
2018-01-08T18:44:03.680Z,35.42
2018-01-08T18:46:31.779Z,34.22
2018-01-08T18:48:59.961Z,34.70
2018-01-08T18:51:28.058Z,42.47
2018-01-08T18:53:56.256Z,40.47
2018-01-08T18:56:24.337Z,37.05
2018-01-08T18:58:52.676Z,22.45
2018-01-08T19:01:21.756Z,33.65
2018-01-08T19:03:49.957Z,37.80
2018-01-08T19:06:18.064Z,47.85
2018-01-08T19:08:46.460Z,31.37
2018-01-08T19:11:14.538Z,32.22
2018-01-08T19:13:42.712Z,32.28
2018-01-08T19:16:10.929Z,28.42
2018-01-08T19:18:39.117Z,32.72
2018-01-08T19:21:07.215Z,27.77
2018-01-08T19:23:35.422Z,30.35
2018-01-08T19:26:03.595Z,27.42
2018-01-08T19:28:31.795Z,32.88
2018-01-08T19:30:59.894Z,28.12
2018-01-08T19:33:28.071Z,39.83
2018-01-08T19:35:56.182Z,32.40
2018-01-08T19:38:24.370Z,25.23
2018-01-08T19:40:52.461Z,27.35
2018-01-08T19:43:20.553Z,18.98
2018-01-08T19:45:48.653Z,20.17
2018-01-08T19:48:16.832Z,32.00
2018-01-08T19:50:44.938Z,21.62
2018-01-08T19:53:13.132Z,24.55
2018-01-08T19:55:41.215Z,27.52
2018-01-08T19:58:09.413Z,25.33
2018-01-08T20:00:37.521Z,29.12
2018-01-08T20:03:05.798Z,31.42
2018-01-08T20:05:34.065Z,39.75
2018-01-08T20:08:02.294Z,45.85
2018-01-08T20:10:30.373Z,39.20
2018-01-08T20:12:58.583Z,44.80
2018-01-08T20:15:26.810Z,45.03
2018-01-08T20:17:54.953Z,61.35
2018-01-08T20:20:23.048Z,59.25
2018-01-08T20:22:52.471Z,58.20
2018-01-08T20:25:20.410Z,51.37
2018-01-08T20:27:48.566Z,46.85
2018-01-08T20:30:16.687Z,49.83
2018-01-08T20:32:44.837Z,46.37
2018-01-08T20:35:13.142Z,46.25
2018-01-08T20:37:41.241Z,34.63
2018-01-08T20:40:09.441Z,39.92
2018-01-08T20:42:37.521Z,36.00
2018-01-08T20:45:05.721Z,39.00
2018-01-08T20:47:33.801Z,47.03
2018-01-08T20:50:02.001Z,41.00
2018-01-08T20:52:30.101Z,39.17
2018-01-08T20:54:58.281Z,32.88
2018-01-08T20:57:26.595Z,28.25
2018-01-08T20:59:54.794Z,31.83
2018-01-08T21:02:24.111Z,29.40
2018-01-08T21:04:52.359Z,23.58
2018-01-08T21:07:20.403Z,27.95
2018-01-08T21:09:48.585Z,27.83
2018-01-08T21:12:16.686Z,29.77
2018-01-08T21:14:44.866Z,26.75
2018-01-08T21:17:12.966Z,25.12
2018-01-08T21:19:41.165Z,36.45
2018-01-08T21:22:09.762Z,38.05
2018-01-08T21:24:37.963Z,27.27
2018-01-08T21:27:06.244Z,30.48
2018-01-08T21:29:34.449Z,26.55
